Time;durP1;ratioP1;P1;durP2;ratioP2;P2;SDS_P1;SDS_P2;PMS_P1;PMS_P2;Temp;Humidity;BMP_temperature;BMP_pressure;BME280_temperature;BME280_humidity;BME280_pressure;Samples;Min_cycle;Max_cycle;Signal;HPM_P1;HPM_P2
2023/10/24 07:56:34;;;;;;;3.53;1.70;;;13.60;99.90;;;;;;2953109;23;20237;-70
2023/10/24 07:59:01;;;;;;;2.23;1.70;;;13.70;99.90;;;;;;4929169;29;20319;-72
2023/10/24 08:01:27;;;;;;;3.47;1.73;;;13.70;99.90;;;;;;4935205;29;20232;-72
2023/10/24 08:03:54;;;;;;;3.43;1.80;;;13.70;99.90;;;;;;4912342;29;20270;-72
2023/10/24 08:06:21;;;;;;;7.13;1.90;;;13.80;99.90;;;;;;4893640;29;20301;-70
2023/10/24 08:08:48;;;;;;;3.80;2.10;;;13.70;99.90;;;;;;4898681;29;20260;-70
2023/10/24 08:11:15;;;;;;;3.37;2.10;;;13.70;99.90;;;;;;4899902;29;20314;-71
2023/10/24 08:13:43;;;;;;;2.87;1.90;;;13.80;99.90;;;;;;4894868;29;20271;-72
2023/10/24 08:16:10;;;;;;;2.93;1.80;;;13.80;99.90;;;;;;4899230;29;20329;-72
2023/10/24 08:18:38;;;;;;;3.77;1.80;;;13.90;99.90;;;;;;4899973;29;20306;-72
2023/10/24 08:21:07;;;;;;;3.57;2.37;;;13.80;99.90;;;;;;4899520;29;20214;-71
2023/10/24 08:23:34;;;;;;;3.50;1.80;;;13.70;99.90;;;;;;4900136;29;20317;-72
2023/10/24 08:26:01;;;;;;;3.70;1.90;;;13.80;99.90;;;;;;4900045;29;20294;-71
2023/10/24 08:28:28;;;;;;;2.87;1.50;;;13.90;99.90;;;;;;4899899;29;20674;-72
2023/10/24 08:30:56;;;;;;;3.73;1.90;;;14.00;99.90;;;;;;4900214;29;20207;-72
2023/10/24 08:33:23;;;;;;;6.17;1.70;;;13.90;99.90;;;;;;4899579;29;20301;-72
2023/10/24 08:35:50;;;;;;;2.63;1.90;;;13.90;99.90;;;;;;4899659;29;20321;-72
2023/10/24 08:38:17;;;;;;;4.13;1.90;;;13.70;99.90;;;;;;4899599;29;20210;-72
2023/10/24 08:40:46;;;;;;;2.43;1.80;;;13.60;99.90;;;;;;4899823;29;20629;-72
2023/10/24 08:43:15;;;;;;;4.57;1.93;;;13.60;99.90;;;;;;4899587;29;20221;-72
2023/10/24 08:45:43;;;;;;;4.53;2.57;;;13.50;99.90;;;;;;4899792;29;20214;-72
2023/10/24 08:48:11;;;;;;;3.03;1.93;;;13.40;99.90;;;;;;4899597;29;20633;-72
2023/10/24 08:50:38;;;;;;;3.63;2.40;;;13.50;99.90;;;;;;4899693;29;20298;-73
2023/10/24 08:53:06;;;;;;;2.83;2.00;;;13.50;99.90;;;;;;4899175;29;20301;-72
2023/10/24 08:55:34;;;;;;;3.70;1.77;;;13.40;99.90;;;;;;4899636;29;20321;-72
2023/10/24 08:58:02;;;;;;;3.27;1.83;;;13.40;99.90;;;;;;4899216;29;20218;-72
2023/10/24 09:00:30;;;;;;;2.83;1.70;;;13.40;99.90;;;;;;4899257;29;20257;-72
2023/10/24 09:02:57;;;;;;;3.33;1.83;;;13.30;99.90;;;;;;4899142;29;20293;-72
2023/10/24 09:05:28;;;;;;;3.37;1.70;;;13.30;99.90;;;;;;4898950;29;20345;-71
2023/10/24 09:07:56;;;;;;;2.27;1.70;;;13.40;99.90;;;;;;4898922;29;20693;-71
2023/10/24 09:10:23;;;;;;;1.93;1.37;;;13.50;99.90;;;;;;4899310;29;20225;-71
2023/10/24 09:12:54;;;;;;;2.53;1.87;;;13.50;99.90;;;;;;4899058;29;20249;-70
2023/10/24 09:15:21;;;;;;;2.17;1.73;;;13.60;99.90;;;;;;4899081;29;20241;-72
2023/10/24 09:17:47;;;;;;;3.47;1.47;;;13.50;99.90;;;;;;4899063;29;20305;-70
2023/10/24 09:20:18;;;;;;;1.93;1.33;;;13.50;99.90;;;;;;4898171;29;20708;-70
2023/10/24 09:22:46;;;;;;;2.37;1.30;;;13.50;99.90;;;;;;4898735;29;20297;-70
2023/10/24 09:25:14;;;;;;;5.23;1.83;;;13.40;99.90;;;;;;4898823;29;20438;-71
2023/10/24 09:27:40;;;;;;;3.90;1.63;;;13.40;99.90;;;;;;4899089;29;20218;-69
2023/10/24 09:30:12;;;;;;;3.33;1.40;;;13.50;99.90;;;;;;4898703;29;20306;-71
2023/10/24 09:32:40;;;;;;;3.00;1.47;;;13.40;99.90;;;;;;4898100;29;20228;-72
2023/10/24 09:35:07;;;;;;;2.87;1.57;;;13.50;99.90;;;;;;4898719;29;20714;-71
2023/10/24 09:37:34;;;;;;;3.00;1.80;;;13.40;99.90;;;;;;4898957;29;20301;-71
2023/10/24 09:40:04;;;;;;;2.97;0.97;;;13.40;99.90;;;;;;4898874;29;20221;-70
2023/10/24 09:42:31;;;;;;;2.43;1.23;;;13.40;99.90;;;;;;4898841;29;20214;-70
2023/10/24 09:45:00;;;;;;;3.63;1.00;;;13.40;99.90;;;;;;4898682;29;20340;-70
2023/10/24 09:47:28;;;;;;;2.37;1.10;;;13.30;99.90;;;;;;4898831;29;20242;-70
2023/10/24 09:49:56;;;;;;;2.00;1.23;;;13.20;99.90;;;;;;4898449;29;20249;-70
2023/10/24 09:52:24;;;;;;;1.63;1.00;;;13.20;99.90;;;;;;4898622;29;20246;-70
2023/10/24 09:54:52;;;;;;;2.93;0.80;;;13.20;99.90;;;;;;4898447;29;20230;-71
2023/10/24 09:57:23;;;;;;;4.13;0.77;;;13.20;99.90;;;;;;4898575;29;20256;-70
2023/10/24 09:59:54;;;;;;;1.33;0.70;;;13.20;99.90;;;;;;4898711;29;20242;-70
2023/10/24 10:02:23;;;;;;;2.90;0.90;;;13.20;99.90;;;;;;4898291;29;20590;-71
2023/10/24 10:04:51;;;;;;;1.97;0.97;;;13.10;99.90;;;;;;4897655;29;20265;-70
2023/10/24 10:07:20;;;;;;;1.10;0.60;;;13.10;99.90;;;;;;4898724;29;20206;-70
2023/10/24 10:09:48;;;;;;;0.83;0.40;;;13.00;99.90;;;;;;4898469;29;20214;-71
2023/10/24 10:12:18;;;;;;;0.70;0.47;;;12.80;99.90;;;;;;4898401;29;20302;-71
2023/10/24 10:15:06;;;;;;;1.70;0.50;;;12.70;99.90;;;;;;4898107;29;20739;-71
2023/10/24 10:17:43;;;;;;;2.93;0.50;;;12.70;99.90;;;;;;4898488;29;20258;-72
2023/10/24 10:20:28;;;;;;;0.93;0.70;;;12.70;99.90;;;;;;4898117;29;20300;-72
2023/10/24 10:23:15;;;;;;;0.67;0.50;;;12.80;99.90;;;;;;4898376;29;20273;-70
2023/10/24 10:25:58;;;;;;;2.53;0.80;;;12.80;99.90;;;;;;4898263;29;20646;-71
2023/10/24 10:28:53;;;;;;;1.37;0.70;;;12.80;99.90;;;;;;4898279;29;20210;-71
2023/10/24 10:31:39;;;;;;;1.40;0.60;;;12.80;99.90;;;;;;4885678;29;20249;-71
2023/10/24 10:34:07;;;;;;;1.73;0.90;;;12.70;99.90;;;;;;4898215;29;20313;-70
2023/10/24 10:36:34;;;;;;;2.10;0.90;;;12.80;99.90;;;;;;4898001;29;20538;-70
2023/10/24 10:39:05;;;;;;;2.23;0.90;;;12.80;99.90;;;;;;4898088;29;20301;-70
2023/10/24 10:41:36;;;;;;;2.90;1.23;;;12.90;99.90;;;;;;4898171;29;20234;-71
2023/10/24 10:44:05;;;;;;;1.60;0.97;;;12.90;99.90;;;;;;4897752;29;20234;-71
2023/10/24 10:46:34;;;;;;;1.23;0.70;;;12.90;99.90;;;;;;4897906;29;20210;-71
2023/10/24 10:49:03;;;;;;;1.17;0.70;;;12.80;99.90;;;;;;4897784;29;20249;-71
2023/10/24 10:51:31;;;;;;;0.90;0.50;;;12.90;99.90;;;;;;4897665;29;20237;-71
2023/10/24 10:54:20;;;;;;;1.43;0.60;;;13.10;99.90;;;;;;4886476;29;20722;-71
2023/10/24 10:56:49;;;;;;;1.23;0.60;;;13.20;99.90;;;;;;4897689;29;20238;-71
2023/10/24 10:59:38;;;;;;;1.53;0.73;;;13.30;99.90;;;;;;4898099;29;20234;-71
2023/10/24 11:02:23;;;;;;;1.70;0.60;;;13.50;99.90;;;;;;4897936;29;20309;-71
2023/10/24 11:04:50;;;;;;;2.20;0.50;;;13.50;99.90;;;;;;4898000;29;20231;-71
2023/10/24 11:07:17;;;;;;;1.37;0.37;;;13.50;99.90;;;;;;4897154;29;20214;-72
2023/10/24 11:09:44;;;;;;;1.60;0.43;;;13.50;99.90;;;;;;4897690;29;20662;-71
2023/10/24 11:12:25;;;;;;;1.13;0.60;;;13.60;99.90;;;;;;4897660;29;20266;-71
2023/10/24 11:15:23;;;;;;;0.40;0.40;;;13.60;99.90;;;;;;4897642;29;20585;-71
2023/10/24 11:17:52;;;;;;;0.80;0.50;;;13.80;99.90;;;;;;4897660;29;20252;-71
2023/10/24 11:20:20;;;;;;;2.10;0.50;;;13.80;99.90;;;;;;4897588;29;20246;-71
2023/10/24 11:22:47;;;;;;;0.57;0.43;;;14.00;99.90;;;;;;4897907;29;20215;-71
2023/10/24 11:25:16;;;;;;;1.00;0.70;;;14.00;99.90;;;;;;4897567;29;20317;-70
2023/10/24 11:27:43;;;;;;;2.43;0.70;;;14.10;99.90;;;;;;4897703;29;20215;-71
2023/10/24 11:30:11;;;;;;;0.73;0.50;;;14.20;99.90;;;;;;4897649;29;20241;-71
2023/10/24 11:32:38;;;;;;;1.27;0.50;;;14.20;99.90;;;;;;4897364;29;20297;-71
2023/10/24 11:35:08;;;;;;;1.27;0.50;;;14.30;99.90;;;;;;4897384;29;20230;-71
2023/10/24 11:37:35;;;;;;;0.40;0.40;;;14.20;99.90;;;;;;4897487;29;20256;-71
2023/10/24 11:40:02;;;;;;;0.63;0.50;;;14.20;99.90;;;;;;4897500;29;20565;-70
2023/10/24 11:42:29;;;;;;;3.27;0.50;;;14.20;99.90;;;;;;4897000;29;20270;-71
2023/10/24 11:44:56;;;;;;;1.27;0.53;;;14.20;99.90;;;;;;4897724;29;20234;-71
2023/10/24 11:47:22;;;;;;;0.87;0.40;;;14.30;99.90;;;;;;4897349;29;20752;-71
2023/10/24 11:49:50;;;;;;;0.60;0.40;;;14.30;99.90;;;;;;4897289;29;20246;-71
2023/10/24 11:52:18;;;;;;;1.43;0.50;;;14.10;99.90;;;;;;4897553;29;20313;-71
2023/10/24 11:54:51;;;;;;;0.60;0.47;;;14.40;99.90;;;;;;4897767;29;20321;-71
2023/10/24 11:57:19;;;;;;;2.77;0.50;;;14.40;99.90;;;;;;4900794;29;20238;-71
2023/10/24 11:59:48;;;;;;;1.10;0.60;;;14.50;99.90;;;;;;4900717;29;20253;-71
2023/10/24 12:02:17;;;;;;;2.00;0.57;;;14.60;99.90;;;;;;4901021;29;20214;-71
2023/10/24 12:04:49;;;;;;;0.50;0.40;;;14.50;99.90;;;;;;4900784;29;20705;-71
2023/10/24 12:07:16;;;;;;;0.50;0.50;;;14.60;99.90;;;;;;4900216;29;20301;-71
2023/10/24 12:09:44;;;;;;;1.40;0.40;;;14.70;99.90;;;;;;4900712;29;20304;-71
2023/10/24 12:12:12;;;;;;;1.30;0.77;;;14.70;99.90;;;;;;4900050;29;20641;-71
2023/10/24 12:14:42;;;;;;;0.60;0.50;;;14.70;99.90;;;;;;4899939;29;20324;-71
2023/10/24 12:17:09;;;;;;;0.80;0.57;;;14.60;99.90;;;;;;4900522;29;20662;-71
2023/10/24 12:19:37;;;;;;;1.20;0.50;;;14.40;99.90;;;;;;4900312;29;20214;-70
2023/10/24 12:22:04;;;;;;;1.13;0.57;;;14.40;99.90;;;;;;4900265;29;20218;-70
2023/10/24 12:24:31;;;;;;;1.33;0.80;;;14.30;99.90;;;;;;4900048;29;20266;-71
2023/10/24 12:26:59;;;;;;;1.27;0.60;;;14.40;99.90;;;;;;4900126;29;20254;-70
2023/10/24 12:29:26;;;;;;;0.73;0.60;;;14.50;99.90;;;;;;4899843;29;20297;-71
2023/10/24 12:31:53;;;;;;;1.17;0.57;;;14.50;99.90;;;;;;4900423;29;20241;-71
2023/10/24 12:34:20;;;;;;;1.57;0.67;;;14.70;99.90;;;;;;4900167;29;20266;-70
2023/10/24 12:36:49;;;;;;;1.87;0.50;;;14.70;99.90;;;;;;4899886;29;20325;-71
2023/10/24 12:39:17;;;;;;;0.97;0.60;;;14.80;99.90;;;;;;4900451;29;20218;-71
2023/10/24 12:41:44;;;;;;;1.77;0.70;;;14.80;99.90;;;;;;4900042;29;20252;-70
2023/10/24 12:44:12;;;;;;;1.83;0.80;;;14.90;99.90;;;;;;4899461;29;20286;-71
2023/10/24 12:46:39;;;;;;;1.33;0.80;;;15.10;99.90;;;;;;4899786;29;20244;-71
2023/10/24 12:49:06;;;;;;;1.63;0.80;;;15.40;99.90;;;;;;4899776;29;20214;-71
2023/10/24 12:51:33;;;;;;;1.00;0.60;;;15.60;99.90;;;;;;4899399;29;20654;-71
2023/10/24 12:54:00;;;;;;;0.83;0.60;;;15.60;99.90;;;;;;4899807;29;20272;-71
2023/10/24 12:56:27;;;;;;;0.97;0.60;;;15.80;99.90;;;;;;4899687;29;20276;-71
2023/10/24 12:58:54;;;;;;;1.50;0.80;;;15.90;99.90;;;;;;4899420;29;20686;-71
2023/10/24 13:01:24;;;;;;;3.03;0.70;;;16.20;99.90;;;;;;4898753;29;20301;-71
2023/10/24 13:03:52;;;;;;;3.80;0.60;;;16.10;99.90;;;;;;4899839;29;20690;-71
2023/10/24 13:06:19;;;;;;;0.97;0.60;;;16.00;99.90;;;;;;4899568;29;20286;-71
2023/10/24 13:08:46;;;;;;;2.20;0.90;;;15.90;99.90;;;;;;4899631;29;20574;-71
2023/10/24 13:11:13;;;;;;;2.37;0.77;;;15.90;99.90;;;;;;4899491;29;20234;-70
2023/10/24 13:13:40;;;;;;;1.77;0.80;;;15.90;99.90;;;;;;4898944;29;20789;-71
2023/10/24 13:16:07;;;;;;;0.73;0.50;;;15.70;99.90;;;;;;4899549;29;20651;-71
2023/10/24 13:18:35;;;;;;;1.33;0.60;;;15.70;99.90;;;;;;4899471;29;20622;-70
2023/10/24 13:21:02;;;;;;;0.80;0.57;;;15.70;99.90;;;;;;4899667;29;20293;-71
2023/10/24 13:23:29;;;;;;;2.53;0.53;;;15.60;99.90;;;;;;4899232;29;20266;-71
2023/10/24 13:25:56;;;;;;;1.23;0.63;;;15.70;99.90;;;;;;4898895;29;20293;-71
2023/10/24 13:28:24;;;;;;;2.40;0.87;;;15.80;99.90;;;;;;4898998;29;20306;-71
2023/10/24 13:30:51;;;;;;;0.50;0.47;;;15.90;99.90;;;;;;4898991;29;20680;-71
2023/10/24 13:33:18;;;;;;;1.77;0.67;;;15.80;99.90;;;;;;4899020;29;20634;-71
2023/10/24 13:35:48;;;;;;;3.20;0.90;;;15.80;99.90;;;;;;4899362;29;20297;-72
2023/10/24 13:38:14;;;;;;;3.07;0.80;;;15.80;99.90;;;;;;4898682;29;20253;-71
2023/10/24 13:40:41;;;;;;;0.90;0.60;;;15.90;99.90;;;;;;4898888;29;20292;-70
2023/10/24 13:43:08;;;;;;;2.20;0.70;;;16.00;99.90;;;;;;4897914;29;20214;-71
2023/10/24 13:45:35;;;;;;;1.27;0.50;;;15.80;99.90;;;;;;4898729;29;20238;-71
2023/10/24 13:48:02;;;;;;;1.53;0.60;;;15.80;99.90;;;;;;4898564;29;20246;-71
2023/10/24 13:50:29;;;;;;;2.83;0.53;;;15.80;99.90;;;;;;4898580;29;20225;-71
2023/10/24 13:52:57;;;;;;;1.47;0.80;;;15.80;99.90;;;;;;4898268;29;20241;-71
2023/10/24 13:55:24;;;;;;;1.37;0.57;;;15.70;99.90;;;;;;4898454;29;20241;-71
2023/10/24 13:57:51;;;;;;;2.70;0.60;;;15.70;99.90;;;;;;4898851;29;20242;-71
2023/10/24 14:00:18;;;;;;;4.63;0.60;;;15.60;99.90;;;;;;4898574;29;20222;-71
2023/10/24 14:02:45;;;;;;;2.67;0.63;;;15.70;99.90;;;;;;4898443;29;20249;-71
2023/10/24 14:05:12;;;;;;;1.13;0.40;;;15.80;99.90;;;;;;4898237;29;20318;-71
2023/10/24 14:07:39;;;;;;;0.50;0.40;;;15.70;99.90;;;;;;4898510;29;20300;-71
2023/10/24 14:10:09;;;;;;;1.13;0.60;;;15.50;99.90;;;;;;4898561;29;20249;-70
2023/10/24 14:12:35;;;;;;;0.97;0.50;;;15.50;99.90;;;;;;4898498;29;20293;-71
2023/10/24 14:15:02;;;;;;;1.20;0.40;;;15.40;99.90;;;;;;4898322;29;20321;-70
2023/10/24 14:17:29;;;;;;;2.07;0.60;;;15.40;99.90;;;;;;4897446;29;20325;-71
2023/10/24 14:19:56;;;;;;;1.83;0.70;;;15.50;99.90;;;;;;4897699;29;20305;-70
2023/10/24 14:22:23;;;;;;;1.90;0.60;;;15.40;99.90;;;;;;4897951;29;20303;-72
2023/10/24 14:24:52;;;;;;;1.07;0.67;;;15.40;99.90;;;;;;4898400;29;20317;-71
2023/10/24 14:27:20;;;;;;;3.57;0.53;;;15.30;99.90;;;;;;4897961;29;20226;-70
2023/10/24 14:29:47;;;;;;;2.90;0.60;;;15.20;99.90;;;;;;4898236;29;20301;-72
2023/10/24 14:32:15;;;;;;;0.53;0.40;;;15.30;99.90;;;;;;4898046;29;20237;-71
2023/10/24 14:34:42;;;;;;;1.20;0.50;;;15.20;99.90;;;;;;4897371;29;20770;-71
2023/10/24 14:37:09;;;;;;;1.80;0.90;;;15.30;99.90;;;;;;4897608;29;20675;-71
2023/10/24 14:39:36;;;;;;;3.23;0.57;;;15.30;99.90;;;;;;4896906;29;20701;-71
2023/10/24 14:42:03;;;;;;;1.33;0.50;;;15.40;99.90;;;;;;4896855;29;20551;-71
2023/10/24 14:44:31;;;;;;;0.90;0.50;;;15.30;99.90;;;;;;4896866;29;20230;-71
2023/10/24 14:46:58;;;;;;;2.30;0.70;;;15.50;99.90;;;;;;4897446;29;20270;-71
2023/10/24 14:49:25;;;;;;;2.33;0.50;;;15.60;99.90;;;;;;4897710;29;20210;-71
2023/10/24 14:51:53;;;;;;;1.57;0.70;;;15.50;99.90;;;;;;4897847;29;20210;-71
2023/10/24 14:54:20;;;;;;;1.00;0.50;;;15.50;99.90;;;;;;4897358;29;20293;-71
2023/10/24 14:56:47;;;;;;;0.90;0.50;;;15.20;99.90;;;;;;4897315;29;20269;-71
2023/10/24 14:59:14;;;;;;;1.50;0.80;;;15.10;99.90;;;;;;4897133;29;20246;-70
2023/10/24 15:01:42;;;;;;;0.70;0.50;;;14.90;99.90;;;;;;4897317;29;20293;-71
2023/10/24 15:04:09;;;;;;;2.40;0.70;;;14.90;99.90;;;;;;4897344;29;20230;-72
2023/10/24 15:06:36;;;;;;;1.10;0.50;;;14.90;99.90;;;;;;4897174;29;20753;-71
2023/10/24 15:09:04;;;;;;;1.90;0.67;;;14.80;99.90;;;;;;4897409;29;20293;-71
2023/10/24 15:11:31;;;;;;;1.13;0.37;;;14.70;99.90;;;;;;4897505;29;20206;-71
2023/10/24 15:13:58;;;;;;;1.20;0.53;;;14.60;99.90;;;;;;4897194;29;20321;-70
2023/10/24 15:16:24;;;;;;;0.93;0.60;;;14.50;99.90;;;;;;4897424;29;20297;-71
2023/10/24 15:18:53;;;;;;;0.60;0.40;;;14.40;99.90;;;;;;4897613;29;20322;-71
2023/10/24 15:21:20;;;;;;;1.23;0.40;;;14.50;99.90;;;;;;4897459;29;20214;-71
2023/10/24 15:23:47;;;;;;;1.40;0.37;;;14.30;99.90;;;;;;4897124;29;20720;-71
2023/10/24 15:26:14;;;;;;;0.50;0.43;;;14.00;99.90;;;;;;4897037;29;20302;-70
2023/10/24 15:28:40;;;;;;;1.27;0.70;;;13.80;99.90;;;;;;4897633;29;20292;-70
2023/10/24 15:31:08;;;;;;;1.93;1.13;;;13.70;99.90;;;;;;4901461;29;20391;-70
2023/10/24 15:33:34;;;;;;;2.37;0.80;;;13.70;99.90;;;;;;4901371;29;20269;-70
2023/10/24 15:36:03;;;;;;;1.07;0.60;;;13.60;99.90;;;;;;4896403;29;20250;-71
2023/10/24 15:38:30;;;;;;;0.70;0.50;;;13.50;99.90;;;;;;4900423;29;20288;-71
2023/10/24 15:40:57;;;;;;;1.57;0.60;;;13.40;99.90;;;;;;4891657;29;20289;-71
2023/10/24 15:43:24;;;;;;;3.73;1.53;;;13.40;99.90;;;;;;4901297;29;20211;-71
2023/10/24 15:46:16;;;;;;;3.37;1.70;;;13.30;99.90;;;;;;4899125;29;20301;-71
2023/10/24 15:48:42;;;;;;;1.67;1.10;;;13.30;99.90;;;;;;4889562;29;20212;-69
2023/10/24 15:51:11;;;;;;;0.90;0.80;;;13.30;99.90;;;;;;4896400;29;20372;-69
2023/10/24 15:53:38;;;;;;;2.27;1.00;;;13.20;99.90;;;;;;4890136;29;20314;-68
2023/10/24 15:56:05;;;;;;;1.13;0.60;;;13.30;99.90;;;;;;4881392;29;20641;-68
2023/10/24 15:58:32;;;;;;;0.40;0.30;;;13.30;99.90;;;;;;4881485;29;20321;-68
2023/10/24 16:01:00;;;;;;;0.40;0.20;;;13.30;99.90;;;;;;4881370;29;20262;-69
2023/10/24 16:03:27;;;;;;;0.30;0.20;;;13.30;99.90;;;;;;4881446;29;20313;-70
2023/10/24 16:05:54;;;;;;;1.90;0.37;;;13.20;99.90;;;;;;4882070;29;20298;-69
2023/10/24 16:08:22;;;;;;;2.30;0.83;;;13.10;99.90;;;;;;4881447;29;20301;-70
2023/10/24 16:10:49;;;;;;;1.27;0.50;;;13.20;99.90;;;;;;4881770;29;20290;-70
2023/10/24 16:13:16;;;;;;;0.40;0.30;;;13.00;99.90;;;;;;4883174;29;20255;-70
2023/10/24 16:15:43;;;;;;;0.50;0.30;;;12.80;99.90;;;;;;4884644;29;20250;-69
2023/10/24 16:18:10;;;;;;;2.80;0.40;;;12.80;99.90;;;;;;4882516;29;20326;-69
2023/10/24 16:20:37;;;;;;;0.67;0.40;;;12.80;99.90;;;;;;4881538;29;20258;-69
2023/10/24 16:23:04;;;;;;;1.23;0.60;;;12.80;99.90;;;;;;4882139;29;20306;-70
2023/10/24 16:25:32;;;;;;;0.87;0.30;;;12.70;99.90;;;;;;4881062;29;20273;-70
2023/10/24 16:28:00;;;;;;;0.57;0.37;;;12.50;99.90;;;;;;4881612;29;20292;-71
2023/10/24 16:30:27;;;;;;;1.67;0.40;;;12.40;99.90;;;;;;4881555;29;20257;-69
2023/10/24 16:32:54;;;;;;;0.90;0.60;;;12.30;99.90;;;;;;4881683;29;20212;-70
2023/10/24 16:35:21;;;;;;;1.10;0.70;;;12.20;99.90;;;;;;4881321;29;20266;-71
2023/10/24 16:37:48;;;;;;;0.93;0.50;;;12.20;99.90;;;;;;4881331;29;20329;-70
2023/10/24 16:40:15;;;;;;;1.33;0.70;;;12.10;99.90;;;;;;4881258;29;20251;-69
2023/10/24 16:42:43;;;;;;;1.87;0.70;;;12.10;99.90;;;;;;4880980;29;20239;-69
2023/10/24 16:45:10;;;;;;;1.33;0.83;;;12.10;99.90;;;;;;4881122;29;20262;-72
2023/10/24 16:47:37;;;;;;;0.90;0.57;;;12.00;99.90;;;;;;4881624;29;20629;-69
2023/10/24 16:50:05;;;;;;;5.63;1.43;;;12.00;99.90;;;;;;4881216;29;20294;-69
2023/10/24 16:52:32;;;;;;;2.20;0.70;;;12.00;99.90;;;;;;4881490;29;20221;-69
2023/10/24 16:54:59;;;;;;;1.40;0.70;;;12.10;99.90;;;;;;4881445;29;20326;-70
2023/10/24 16:57:26;;;;;;;0.97;0.57;;;12.20;99.90;;;;;;4881159;29;20326;-69
2023/10/24 16:59:56;;;;;;;2.23;0.57;;;12.20;99.90;;;;;;4881133;29;20245;-70
2023/10/24 17:02:23;;;;;;;1.07;0.47;;;12.20;99.90;;;;;;4880876;29;20218;-71
2023/10/24 17:04:50;;;;;;;1.87;0.80;;;12.20;99.90;;;;;;4881331;29;20317;-69
2023/10/24 17:07:17;;;;;;;2.33;1.10;;;12.20;99.90;;;;;;4880918;29;20318;-70
2023/10/24 17:09:44;;;;;;;3.20;0.80;;;12.30;99.90;;;;;;4880784;29;20250;-70
2023/10/24 17:12:11;;;;;;;1.60;0.90;;;12.30;99.90;;;;;;4880958;29;20275;-69
2023/10/24 17:14:38;;;;;;;1.20;0.70;;;12.30;99.90;;;;;;4880612;29;20322;-69
2023/10/24 17:17:06;;;;;;;4.93;1.20;;;12.20;99.90;;;;;;4880440;29;20319;-69
2023/10/24 17:19:33;;;;;;;4.53;1.60;;;12.20;99.90;;;;;;4880745;29;20250;-70
2023/10/24 17:22:00;;;;;;;4.93;1.80;;;12.20;99.90;;;;;;4880695;29;20639;-70
2023/10/24 17:24:27;;;;;;;3.57;2.47;;;12.10;99.90;;;;;;4880719;29;20657;-69
2023/10/24 17:26:54;;;;;;;3.50;2.10;;;12.10;99.90;;;;;;4880561;29;20239;-70
2023/10/24 17:29:21;;;;;;;1.53;1.10;;;12.10;99.90;;;;;;4880543;29;20263;-70
2023/10/24 17:31:48;;;;;;;1.73;0.83;;;12.10;99.90;;;;;;4880348;29;20215;-69
2023/10/24 17:34:16;;;;;;;1.97;0.97;;;12.00;99.90;;;;;;4880502;29;20322;-69
2023/10/24 17:36:43;;;;;;;1.70;1.10;;;11.90;99.90;;;;;;4880643;29;20260;-69
2023/10/24 17:39:10;;;;;;;3.97;1.70;;;11.90;99.90;;;;;;4880648;29;20605;-69
2023/10/24 17:41:37;;;;;;;7.77;3.97;;;11.90;99.90;;;;;;4880478;29;20642;-69
2023/10/24 17:44:04;;;;;;;6.60;3.30;;;11.90;99.90;;;;;;4879966;29;20270;-70
2023/10/24 17:46:30;;;;;;;3.07;2.03;;;11.80;99.90;;;;;;4880004;29;20659;-70
2023/10/24 17:48:57;;;;;;;3.83;1.90;;;11.80;99.90;;;;;;4879833;29;20247;-69
2023/10/24 17:51:26;;;;;;;3.87;1.30;;;11.80;99.90;;;;;;4880098;29;20243;-70
2023/10/24 17:53:52;;;;;;;2.10;1.40;;;11.70;99.90;;;;;;4878862;29;20318;-70
2023/10/24 17:56:19;;;;;;;3.30;1.30;;;11.60;99.90;;;;;;4880477;29;20250;-69
2023/10/24 17:58:46;;;;;;;2.30;1.10;;;11.60;99.90;;;;;;4879285;29;20243;-70
2023/10/24 18:01:13;;;;;;;4.10;1.63;;;11.60;99.90;;;;;;4880299;29;20298;-72
2023/10/24 18:03:41;;;;;;;2.20;1.27;;;11.60;99.90;;;;;;4879872;29;20671;-70
2023/10/24 18:06:09;;;;;;;1.83;1.10;;;11.50;99.90;;;;;;4879969;29;20294;-70
2023/10/24 18:08:40;;;;;;;2.40;1.00;;;11.60;99.90;;;;;;4879552;29;20222;-70
2023/10/24 18:11:07;;;;;;;1.63;1.07;;;11.60;99.90;;;;;;4880181;29;20298;-69
2023/10/24 18:13:34;;;;;;;1.23;0.90;;;11.60;99.90;;;;;;4879802;29;20597;-70
2023/10/24 18:16:01;;;;;;;1.13;0.70;;;11.60;99.90;;;;;;4880151;29;20257;-69
2023/10/24 18:18:28;;;;;;;1.90;0.90;;;11.60;99.90;;;;;;4879667;29;20274;-70
2023/10/24 18:20:55;;;;;;;1.67;0.80;;;11.60;99.90;;;;;;4879603;29;20298;-70
2023/10/24 18:23:22;;;;;;;1.50;0.60;;;11.50;99.90;;;;;;4880612;29;20310;-71
2023/10/24 18:25:53;;;;;;;1.97;0.80;;;11.50;99.90;;;;;;4885430;29;20210;-72
2023/10/24 18:28:21;;;;;;;4.43;0.63;;;11.50;99.90;;;;;;4897712;29;20672;-71
2023/10/24 18:30:48;;;;;;;3.03;0.60;;;11.50;99.90;;;;;;4897320;29;20214;-70
2023/10/24 18:33:15;;;;;;;2.07;1.00;;;11.50;99.90;;;;;;4897015;29;20292;-71
2023/10/24 18:35:42;;;;;;;1.80;0.73;;;11.50;99.90;;;;;;4896974;29;20260;-69
2023/10/24 18:38:08;;;;;;;2.33;1.17;;;11.50;99.90;;;;;;4897024;29;20242;-70
2023/10/24 18:40:36;;;;;;;2.27;1.30;;;11.60;99.90;;;;;;4897572;29;20289;-70
2023/10/24 18:43:04;;;;;;;3.77;1.00;;;11.60;99.90;;;;;;4897420;29;20210;-71
2023/10/24 18:45:31;;;;;;;4.70;0.90;;;11.60;99.90;;;;;;4897242;29;20301;-70
2023/10/24 18:47:58;;;;;;;2.80;0.80;;;11.60;99.90;;;;;;4897364;29;20301;-70
2023/10/24 18:50:27;;;;;;;4.60;0.87;;;11.60;99.90;;;;;;4897266;29;20217;-71
2023/10/24 18:52:57;;;;;;;1.80;0.90;;;11.60;99.90;;;;;;4896096;29;20737;-70
2023/10/24 18:55:24;;;;;;;3.10;0.87;;;11.60;99.90;;;;;;4896106;29;20236;-70
2023/10/24 18:57:50;;;;;;;1.87;0.70;;;11.50;99.90;;;;;;4897333;29;20353;-70
2023/10/24 19:00:19;;;;;;;2.57;1.10;;;11.60;99.90;;;;;;4897687;29;20238;-70
2023/10/24 19:02:49;;;;;;;3.30;1.20;;;11.60;99.90;;;;;;4894804;29;20289;-70
2023/10/24 19:05:17;;;;;;;1.30;0.80;;;11.60;99.90;;;;;;4890667;29;20754;-70
2023/10/24 19:07:44;;;;;;;3.63;1.00;;;11.50;99.90;;;;;;4897178;29;20206;-70
2023/10/24 19:10:12;;;;;;;2.67;1.03;;;11.50;99.90;;;;;;4896391;29;20299;-70
2023/10/24 19:12:40;;;;;;;1.17;0.93;;;11.50;99.90;;;;;;4896665;29;20289;-70
2023/10/24 19:15:10;;;;;;;1.80;0.90;;;11.50;99.90;;;;;;4896825;29;20234;-70
2023/10/24 19:17:40;;;;;;;1.37;0.77;;;11.40;99.90;;;;;;4896981;29;20206;-69
2023/10/24 19:20:08;;;;;;;1.03;0.73;;;11.40;99.90;;;;;;4896890;29;20244;-71
2023/10/24 19:22:36;;;;;;;1.73;0.70;;;11.30;99.90;;;;;;4897286;29;20250;-70
2023/10/24 19:25:04;;;;;;;3.43;1.37;;;11.30;99.90;;;;;;4897007;29;20262;-72
2023/10/24 19:27:32;;;;;;;5.77;0.70;;;11.30;99.90;;;;;;4896648;29;20246;-68
2023/10/24 19:29:59;;;;;;;2.53;0.73;;;11.30;99.90;;;;;;4896530;29;20681;-71
2023/10/24 19:32:31;;;;;;;3.20;0.83;;;11.30;99.90;;;;;;4896896;29;20359;-70
2023/10/24 19:35:00;;;;;;;2.00;0.83;;;11.30;99.90;;;;;;4896356;29;20638;-71
2023/10/24 19:37:28;;;;;;;3.47;1.33;;;11.30;99.90;;;;;;4892686;29;20267;-69
2023/10/24 19:39:55;;;;;;;3.83;1.20;;;11.40;99.90;;;;;;4890022;29;20721;-69
2023/10/24 19:42:23;;;;;;;4.57;1.43;;;11.40;99.90;;;;;;4897087;29;20210;-68
2023/10/24 19:44:50;;;;;;;2.07;0.90;;;11.40;99.90;;;;;;4896592;29;20236;-72
2023/10/24 19:47:20;;;;;;;4.80;1.63;;;11.40;99.90;;;;;;4897062;29;20301;-70
2023/10/24 19:49:49;;;;;;;4.97;1.27;;;11.40;99.90;;;;;;4897011;29;20234;-70
2023/10/24 19:52:21;;;;;;;1.90;0.77;;;11.40;99.90;;;;;;4897086;29;20552;-71
2023/10/24 19:54:49;;;;;;;4.90;0.63;;;11.40;99.90;;;;;;4894427;29;20639;-72
2023/10/24 19:57:16;;;;;;;1.47;0.83;;;11.40;99.90;;;;;;4887662;29;20283;-68
2023/10/24 19:59:44;;;;;;;2.53;1.07;;;11.40;99.90;;;;;;4896503;29;20321;-68
2023/10/24 20:02:11;;;;;;;3.97;1.03;;;11.50;99.90;;;;;;4896562;29;20286;-70
2023/10/24 20:04:42;;;;;;;2.33;1.30;;;11.40;99.90;;;;;;4896413;29;20284;-70
2023/10/24 20:07:10;;;;;;;5.03;1.33;;;11.40;99.90;;;;;;4896388;29;20584;-69
2023/10/24 20:09:39;;;;;;;3.93;1.10;;;11.40;99.90;;;;;;4896063;29;20215;-69
2023/10/24 20:12:07;;;;;;;3.67;0.93;;;11.40;99.90;;;;;;4896214;29;20566;-70
2023/10/24 20:14:34;;;;;;;3.67;1.10;;;11.40;99.90;;;;;;4896465;29;20261;-70
2023/10/24 20:17:03;;;;;;;1.87;0.87;;;11.40;99.90;;;;;;4898461;29;20454;-69
2023/10/24 20:19:30;;;;;;;2.33;0.90;;;11.40;99.90;;;;;;4899783;29;20709;-69
2023/10/24 20:21:58;;;;;;;2.03;0.90;;;11.40;99.90;;;;;;4899853;29;20294;-69
2023/10/24 20:24:25;;;;;;;2.50;0.93;;;11.40;99.90;;;;;;4899781;29;20614;-69
2023/10/24 20:26:56;;;;;;;3.13;0.87;;;11.40;99.90;;;;;;4899848;29;20241;-70
2023/10/24 20:29:23;;;;;;;2.50;1.10;;;11.30;99.90;;;;;;4899618;29;20249;-70
2023/10/24 20:31:50;;;;;;;2.07;0.80;;;11.30;99.90;;;;;;4899174;29;20234;-71
2023/10/24 20:34:17;;;;;;;1.73;0.70;;;11.20;99.90;;;;;;4899775;29;20302;-70
2023/10/24 20:36:45;;;;;;;1.67;0.80;;;11.10;99.90;;;;;;4900339;29;20210;-70
2023/10/24 20:39:12;;;;;;;4.10;0.90;;;11.10;99.90;;;;;;4899856;29;20662;-70
2023/10/24 20:41:39;;;;;;;1.53;0.80;;;11.00;99.90;;;;;;4900086;29;20210;-70
2023/10/24 20:44:07;;;;;;;2.47;0.90;;;11.00;99.90;;;;;;4899955;29;20270;-70
2023/10/24 20:46:34;;;;;;;1.53;0.70;;;10.90;99.90;;;;;;4899719;29;20257;-70
2023/10/24 20:49:01;;;;;;;2.33;1.40;;;10.90;99.90;;;;;;4899301;29;20260;-70